<?xml version="1.0" encoding="UTF-8" standalone="no" ?>
<gpx xmlns="http://www.topografix.com/GPX/1/1" xmlns:xsi="http://www.w3.org/2001/XMLSchema-instance" xsi:schemaLocation="http://www.topografix.com/GPX/1/1 http://www.topografix.com/GPX/1/1/gpx.xsd" version="1.1" creator="VisuGPX - https://www.visugpx.com">
  <metadata>
    <name>46-duravel</name>
    <desc><![CDATA[Randonnée du 19/09/2016, randonnée d'environ 12km avec un bon dénivelé de 350m positif. Belle balade entre vignes et sous-bois, traversée de village aux maisons typiques de la région.]]></desc>
  </metadata>
  <trk>
    <name><![CDATA[2016-09-19-Duravel]]></name>
    <trkseg>
      <trkpt lat="44.51626" lon="1.07983">
        <ele>119</ele>
        <time>2016-08-22T21:55:33Z</time>
      </trkpt>
      <trkpt lat="44.51651" lon="1.07985">
        <ele>124</ele>
        <time>2016-08-22T21:57:33Z</time>
      </trkpt>
      <trkpt lat="44.51673" lon="1.07891">
        <ele>129</ele>
        <time>2016-08-22T21:59:33Z</time>
      </trkpt>
      <trkpt lat="44.51701" lon="1.07853">
        <ele>136</ele>
        <time>2016-08-22T22:01:33Z</time>
      </trkpt>
      <trkpt lat="44.51734" lon="1.07863">
        <ele>145</ele>
        <time>2016-08-22T22:03:33Z</time>
      </trkpt>
      <trkpt lat="44.5175" lon="1.07832">
        <ele>148</ele>
        <time>2016-08-22T22:05:33Z</time>
      </trkpt>
      <trkpt lat="44.51744" lon="1.07768">
        <ele>148</ele>
        <time>2016-08-22T22:07:33Z</time>
      </trkpt>
      <trkpt lat="44.51757" lon="1.07674">
        <ele>153</ele>
        <time>2016-08-22T22:09:33Z</time>
      </trkpt>
      <trkpt lat="44.51796" lon="1.07603">
        <ele>162</ele>
        <time>2016-08-22T22:11:33Z</time>
      </trkpt>
      <trkpt lat="44.51827" lon="1.07562">
        <ele>167</ele>
        <time>2016-08-22T22:13:33Z</time>
      </trkpt>
      <trkpt lat="44.51937" lon="1.07518">
        <ele>188</ele>
        <time>2016-08-22T22:15:33Z</time>
      </trkpt>
      <trkpt lat="44.52109" lon="1.07381">
        <ele>201</ele>
        <time>2016-08-22T22:17:33Z</time>
      </trkpt>
      <trkpt lat="44.52109" lon="1.07274">
        <ele>204</ele>
        <time>2016-08-22T22:19:33Z</time>
      </trkpt>
      <trkpt lat="44.52137" lon="1.07222">
        <ele>210</ele>
        <time>2016-08-22T22:21:33Z</time>
      </trkpt>
      <trkpt lat="44.52153" lon="1.07149">
        <ele>214</ele>
        <time>2016-08-22T22:23:33Z</time>
      </trkpt>
      <trkpt lat="44.52157" lon="1.07078">
        <ele>221</ele>
        <time>2016-08-22T22:25:33Z</time>
      </trkpt>
      <trkpt lat="44.52182" lon="1.06974">
        <ele>234</ele>
        <time>2016-08-22T22:27:33Z</time>
      </trkpt>
      <trkpt lat="44.52242" lon="1.06797">
        <ele>232</ele>
        <time>2016-08-22T22:29:33Z</time>
      </trkpt>
      <trkpt lat="44.523" lon="1.06737">
        <ele>227</ele>
        <time>2016-08-22T22:31:33Z</time>
      </trkpt>
      <trkpt lat="44.5234" lon="1.06696">
        <ele>224</ele>
        <time>2016-08-22T22:33:33Z</time>
      </trkpt>
      <trkpt lat="44.52392" lon="1.06575">
        <ele>218</ele>
        <time>2016-08-22T22:35:33Z</time>
      </trkpt>
      <trkpt lat="44.52452" lon="1.06426">
        <ele>218</ele>
        <time>2016-08-22T22:37:33Z</time>
      </trkpt>
      <trkpt lat="44.52507" lon="1.0635">
        <ele>216</ele>
        <time>2016-08-22T22:39:33Z</time>
      </trkpt>
      <trkpt lat="44.52571" lon="1.06325">
        <ele>210</ele>
        <time>2016-08-22T22:41:33Z</time>
      </trkpt>
      <trkpt lat="44.52596" lon="1.06264">
        <ele>208</ele>
        <time>2016-08-22T22:43:33Z</time>
      </trkpt>
      <trkpt lat="44.52629" lon="1.06139">
        <ele>203</ele>
        <time>2016-08-22T22:45:33Z</time>
      </trkpt>
      <trkpt lat="44.52734" lon="1.05936">
        <ele>194</ele>
        <time>2016-08-22T22:47:33Z</time>
      </trkpt>
      <trkpt lat="44.5276" lon="1.058">
        <ele>186</ele>
        <time>2016-08-22T22:49:33Z</time>
      </trkpt>
      <trkpt lat="44.52753" lon="1.05602">
        <ele>174</ele>
        <time>2016-08-22T22:51:33Z</time>
      </trkpt>
      <trkpt lat="44.52784" lon="1.05573">
        <ele>176</ele>
        <time>2016-08-22T22:53:33Z</time>
      </trkpt>
      <trkpt lat="44.52815" lon="1.05387">
        <ele>159</ele>
        <time>2016-08-22T22:55:33Z</time>
      </trkpt>
      <trkpt lat="44.52803" lon="1.05369">
        <ele>157</ele>
        <time>2016-08-22T22:57:33Z</time>
      </trkpt>
      <trkpt lat="44.52736" lon="1.05333">
        <ele>157</ele>
        <time>2016-08-22T22:59:33Z</time>
      </trkpt>
      <trkpt lat="44.52811" lon="1.052">
        <ele>147</ele>
        <time>2016-08-22T23:01:33Z</time>
      </trkpt>
      <trkpt lat="44.52894" lon="1.05051">
        <ele>130</ele>
        <time>2016-08-22T23:03:33Z</time>
      </trkpt>
      <trkpt lat="44.52953" lon="1.05078">
        <ele>125</ele>
        <time>2016-08-22T23:05:33Z</time>
      </trkpt>
      <trkpt lat="44.53007" lon="1.0498">
        <ele>112</ele>
        <time>2016-08-22T23:07:33Z</time>
      </trkpt>
      <trkpt lat="44.53087" lon="1.04907">
        <ele>107</ele>
        <time>2016-08-22T23:09:33Z</time>
      </trkpt>
      <trkpt lat="44.52931" lon="1.04722">
        <ele>104</ele>
        <time>2016-08-22T23:11:33Z</time>
      </trkpt>
      <trkpt lat="44.52985" lon="1.04376">
        <ele>103</ele>
        <time>2016-08-22T23:13:33Z</time>
      </trkpt>
      <trkpt lat="44.53067" lon="1.04306">
        <ele>104</ele>
        <time>2016-08-22T23:15:33Z</time>
      </trkpt>
      <trkpt lat="44.53037" lon="1.0424">
        <ele>103</ele>
        <time>2016-08-22T23:17:33Z</time>
      </trkpt>
      <trkpt lat="44.53001" lon="1.04285">
        <ele>102</ele>
        <time>2016-08-22T23:19:33Z</time>
      </trkpt>
      <trkpt lat="44.52975" lon="1.04368">
        <ele>103</ele>
        <time>2016-08-22T23:21:33Z</time>
      </trkpt>
      <trkpt lat="44.52624" lon="1.04354">
        <ele>101</ele>
        <time>2016-08-22T23:23:33Z</time>
      </trkpt>
      <trkpt lat="44.52431" lon="1.04129">
        <ele>99</ele>
        <time>2016-08-22T23:25:33Z</time>
      </trkpt>
      <trkpt lat="44.52399" lon="1.04136">
        <ele>100</ele>
        <time>2016-08-22T23:27:33Z</time>
      </trkpt>
      <trkpt lat="44.5226" lon="1.04072">
        <ele>99</ele>
        <time>2016-08-22T23:29:33Z</time>
      </trkpt>
      <trkpt lat="44.52196" lon="1.04056">
        <ele>100</ele>
        <time>2016-08-22T23:31:33Z</time>
      </trkpt>
      <trkpt lat="44.52008" lon="1.03969">
        <ele>106</ele>
        <time>2016-08-22T23:33:33Z</time>
      </trkpt>
      <trkpt lat="44.51896" lon="1.0389">
        <ele>120</ele>
        <time>2016-08-22T23:35:33Z</time>
      </trkpt>
      <trkpt lat="44.5178" lon="1.03872">
        <ele>131</ele>
        <time>2016-08-22T23:37:33Z</time>
      </trkpt>
      <trkpt lat="44.51692" lon="1.03841">
        <ele>142</ele>
        <time>2016-08-22T23:39:33Z</time>
      </trkpt>
      <trkpt lat="44.51632" lon="1.03848">
        <ele>149</ele>
        <time>2016-08-22T23:41:33Z</time>
      </trkpt>
      <trkpt lat="44.51523" lon="1.03891">
        <ele>165</ele>
        <time>2016-08-22T23:43:33Z</time>
      </trkpt>
      <trkpt lat="44.51339" lon="1.03986">
        <ele>196</ele>
        <time>2016-08-22T23:45:33Z</time>
      </trkpt>
      <trkpt lat="44.51282" lon="1.03952">
        <ele>198</ele>
        <time>2016-08-22T23:47:33Z</time>
      </trkpt>
      <trkpt lat="44.51256" lon="1.03922">
        <ele>200</ele>
        <time>2016-08-22T23:49:33Z</time>
      </trkpt>
      <trkpt lat="44.51249" lon="1.03834">
        <ele>204</ele>
        <time>2016-08-22T23:51:33Z</time>
      </trkpt>
      <trkpt lat="44.51185" lon="1.03737">
        <ele>211</ele>
        <time>2016-08-22T23:53:33Z</time>
      </trkpt>
      <trkpt lat="44.51127" lon="1.03877">
        <ele>211</ele>
        <time>2016-08-22T23:55:33Z</time>
      </trkpt>
      <trkpt lat="44.51103" lon="1.03958">
        <ele>211</ele>
        <time>2016-08-22T23:57:33Z</time>
      </trkpt>
      <trkpt lat="44.51113" lon="1.04137">
        <ele>210</ele>
        <time>2016-08-22T23:59:33Z</time>
      </trkpt>
      <trkpt lat="44.51079" lon="1.04175">
        <ele>210</ele>
        <time>2016-08-23T00:01:33Z</time>
      </trkpt>
      <trkpt lat="44.51063" lon="1.04293">
        <ele>218</ele>
        <time>2016-08-23T00:03:33Z</time>
      </trkpt>
      <trkpt lat="44.50855" lon="1.04561">
        <ele>215</ele>
        <time>2016-08-23T00:05:33Z</time>
      </trkpt>
      <trkpt lat="44.50849" lon="1.0467">
        <ele>213</ele>
        <time>2016-08-23T00:07:33Z</time>
      </trkpt>
      <trkpt lat="44.50875" lon="1.04722">
        <ele>212</ele>
        <time>2016-08-23T00:09:33Z</time>
      </trkpt>
      <trkpt lat="44.50942" lon="1.0478">
        <ele>207</ele>
        <time>2016-08-23T00:11:33Z</time>
      </trkpt>
      <trkpt lat="44.50958" lon="1.04843">
        <ele>208</ele>
        <time>2016-08-23T00:13:33Z</time>
      </trkpt>
      <trkpt lat="44.50948" lon="1.04939">
        <ele>211</ele>
        <time>2016-08-23T00:15:33Z</time>
      </trkpt>
      <trkpt lat="44.50967" lon="1.05009">
        <ele>204</ele>
        <time>2016-08-23T00:17:33Z</time>
      </trkpt>
      <trkpt lat="44.51054" lon="1.05031">
        <ele>203</ele>
        <time>2016-08-23T00:19:33Z</time>
      </trkpt>
      <trkpt lat="44.51108" lon="1.05112">
        <ele>201</ele>
        <time>2016-08-23T00:21:33Z</time>
      </trkpt>
      <trkpt lat="44.51097" lon="1.05163">
        <ele>197</ele>
        <time>2016-08-23T00:23:33Z</time>
      </trkpt>
      <trkpt lat="44.51131" lon="1.05206">
        <ele>196</ele>
        <time>2016-08-23T00:25:33Z</time>
      </trkpt>
      <trkpt lat="44.51153" lon="1.05187">
        <ele>202</ele>
        <time>2016-08-23T00:27:33Z</time>
      </trkpt>
      <trkpt lat="44.51207" lon="1.05137">
        <ele>198</ele>
        <time>2016-08-23T00:29:33Z</time>
      </trkpt>
      <trkpt lat="44.51304" lon="1.05123">
        <ele>192</ele>
        <time>2016-08-23T00:31:33Z</time>
      </trkpt>
      <trkpt lat="44.5137" lon="1.05083">
        <ele>190</ele>
        <time>2016-08-23T00:33:33Z</time>
      </trkpt>
      <trkpt lat="44.51474" lon="1.05103">
        <ele>187</ele>
        <time>2016-08-23T00:35:33Z</time>
      </trkpt>
      <trkpt lat="44.51552" lon="1.05156">
        <ele>190</ele>
        <time>2016-08-23T00:37:33Z</time>
      </trkpt>
      <trkpt lat="44.51596" lon="1.05168">
        <ele>193</ele>
        <time>2016-08-23T00:39:33Z</time>
      </trkpt>
      <trkpt lat="44.51632" lon="1.0519">
        <ele>197</ele>
        <time>2016-08-23T00:41:33Z</time>
      </trkpt>
      <trkpt lat="44.51734" lon="1.05488">
        <ele>215</ele>
        <time>2016-08-23T00:43:33Z</time>
      </trkpt>
      <trkpt lat="44.51746" lon="1.05558">
        <ele>215</ele>
        <time>2016-08-23T00:45:33Z</time>
      </trkpt>
      <trkpt lat="44.51707" lon="1.05664">
        <ele>217</ele>
        <time>2016-08-23T00:47:33Z</time>
      </trkpt>
      <trkpt lat="44.51671" lon="1.05749">
        <ele>220</ele>
        <time>2016-08-23T00:49:33Z</time>
      </trkpt>
      <trkpt lat="44.51652" lon="1.05845">
        <ele>219</ele>
        <time>2016-08-23T00:51:33Z</time>
      </trkpt>
      <trkpt lat="44.51597" lon="1.05909">
        <ele>223</ele>
        <time>2016-08-23T00:53:33Z</time>
      </trkpt>
      <trkpt lat="44.51607" lon="1.0597">
        <ele>218</ele>
        <time>2016-08-23T00:55:33Z</time>
      </trkpt>
      <trkpt lat="44.51659" lon="1.06077">
        <ele>217</ele>
        <time>2016-08-23T00:57:33Z</time>
      </trkpt>
      <trkpt lat="44.5169" lon="1.06121">
        <ele>218</ele>
        <time>2016-08-23T00:59:33Z</time>
      </trkpt>
      <trkpt lat="44.51684" lon="1.06205">
        <ele>214</ele>
        <time>2016-08-23T01:01:33Z</time>
      </trkpt>
      <trkpt lat="44.51714" lon="1.06328">
        <ele>207</ele>
        <time>2016-08-23T01:03:33Z</time>
      </trkpt>
      <trkpt lat="44.51777" lon="1.06412">
        <ele>204</ele>
        <time>2016-08-23T01:05:33Z</time>
      </trkpt>
      <trkpt lat="44.51782" lon="1.06579">
        <ele>186</ele>
        <time>2016-08-23T01:07:33Z</time>
      </trkpt>
      <trkpt lat="44.51752" lon="1.06573">
        <ele>175</ele>
        <time>2016-08-23T01:09:33Z</time>
      </trkpt>
      <trkpt lat="44.51725" lon="1.06646">
        <ele>173</ele>
        <time>2016-08-23T01:11:33Z</time>
      </trkpt>
      <trkpt lat="44.51665" lon="1.06691">
        <ele>153</ele>
        <time>2016-08-23T01:13:33Z</time>
      </trkpt>
      <trkpt lat="44.51614" lon="1.06758">
        <ele>144</ele>
        <time>2016-08-23T01:15:33Z</time>
      </trkpt>
      <trkpt lat="44.51567" lon="1.06862">
        <ele>131</ele>
        <time>2016-08-23T01:17:33Z</time>
      </trkpt>
      <trkpt lat="44.51543" lon="1.06921">
        <ele>125</ele>
        <time>2016-08-23T01:19:33Z</time>
      </trkpt>
      <trkpt lat="44.51518" lon="1.07074">
        <ele>116</ele>
        <time>2016-08-23T01:21:33Z</time>
      </trkpt>
      <trkpt lat="44.5149" lon="1.07141">
        <ele>108</ele>
        <time>2016-08-23T01:23:33Z</time>
      </trkpt>
      <trkpt lat="44.51402" lon="1.07139">
        <ele>98</ele>
        <time>2016-08-23T01:25:33Z</time>
      </trkpt>
      <trkpt lat="44.51421" lon="1.07286">
        <ele>95</ele>
        <time>2016-08-23T01:27:33Z</time>
      </trkpt>
      <trkpt lat="44.5143" lon="1.07495">
        <ele>96</ele>
        <time>2016-08-23T01:29:33Z</time>
      </trkpt>
      <trkpt lat="44.51415" lon="1.07674">
        <ele>98</ele>
        <time>2016-08-23T01:31:33Z</time>
      </trkpt>
      <trkpt lat="44.51484" lon="1.07709">
        <ele>102</ele>
        <time>2016-08-23T01:33:33Z</time>
      </trkpt>
      <trkpt lat="44.515" lon="1.07782">
        <ele>104</ele>
        <time>2016-08-23T01:35:33Z</time>
      </trkpt>
      <trkpt lat="44.51526" lon="1.07823">
        <ele>107</ele>
        <time>2016-08-23T01:37:33Z</time>
      </trkpt>
      <trkpt lat="44.51543" lon="1.07948">
        <ele>109</ele>
        <time>2016-08-23T01:39:33Z</time>
      </trkpt>
      <trkpt lat="44.51561" lon="1.07947">
        <ele>110</ele>
        <time>2016-08-23T01:41:33Z</time>
      </trkpt>
      <trkpt lat="44.51566" lon="1.07984">
        <ele>111</ele>
        <time>2016-08-23T01:43:33Z</time>
      </trkpt>
      <trkpt lat="44.51613" lon="1.07986">
        <ele>117</ele>
        <time>2016-08-23T01:45:33Z</time>
      </trkpt>
    </trkseg>
  </trk>
</gpx>